Time;durP1;ratioP1;P1;durP2;ratioP2;P2;SDS_P1;SDS_P2;PMS_P1;PMS_P2;Temp;Humidity;BMP_temperature;BMP_pressure;BME280_temperature;BME280_humidity;BME280_pressure;Samples;Min_cycle;Max_cycle;Signal;HPM_P1;HPM_P2
2022/09/28 00:01:15;;;;;;;1.95;0.80;;;20.30;88.10;;;;;;5049268;28;20096;-65
2022/09/28 00:03:43;;;;;;;2.60;1.08;;;20.20;87.30;;;;;;5042614;28;20494;-66
2022/09/28 00:06:13;;;;;;;1.13;0.70;;;20.30;85.40;;;;;;5046951;28;20032;-66
2022/09/28 00:08:40;;;;;;;1.67;1.08;;;20.40;83.90;;;;;;5049863;28;20021;-66
2022/09/28 00:11:11;;;;;;;1.67;0.90;;;20.60;87.80;;;;;;5048794;28;20059;-65
2022/09/28 00:13:39;;;;;;;1.85;1.08;;;20.80;87.60;;;;;;5054740;28;20044;-65
2022/09/28 00:16:12;;;;;;;0.95;0.77;;;20.90;84.20;;;;;;5048712;28;20036;-65
2022/09/28 00:18:40;;;;;;;1.50;0.80;;;21.00;81.60;;;;;;5047049;28;20024;-66
2022/09/28 00:21:11;;;;;;;5.30;0.93;;;21.30;81.00;;;;;;5048506;28;20562;-66
2022/09/28 00:26:26;;;;;;;1.08;0.60;;;21.60;79.50;;;;;;5046654;28;20036;-66
2022/09/28 00:28:55;;;;;;;1.60;0.77;;;21.70;78.30;;;;;;5046391;28;20033;-66
2022/09/28 00:31:23;;;;;;;1.55;0.75;;;21.90;80.60;;;;;;5048094;28;20044;-65
2022/09/28 00:33:54;;;;;;;1.17;0.77;;;22.20;77.40;;;;;;5048048;28;20032;-66
2022/09/28 00:36:21;;;;;;;1.35;0.68;;;22.10;73.00;;;;;;5047857;28;20639;-65
2022/09/28 00:38:50;;;;;;;2.95;0.77;;;22.10;72.80;;;;;;5046727;28;20029;-65
2022/09/28 00:41:17;;;;;;;1.48;0.90;;;21.80;73.40;;;;;;5046641;28;20029;-65
2022/09/28 00:43:45;;;;;;;1.15;0.60;;;21.40;78.70;;;;;;5046655;28;20104;-65
2022/09/28 00:46:16;;;;;;;1.05;0.70;;;21.10;80.80;;;;;;5047881;28;20040;-65
2022/09/28 00:48:55;;;;;;;2.00;1.27;;;21.10;81.80;;;;;;5042797;28;20134;-66
2022/09/28 00:51:26;;;;;;;1.58;0.80;;;21.10;81.70;;;;;;5045642;28;20353;-66
2022/09/28 00:53:55;;;;;;;3.15;0.70;;;21.60;78.30;;;;;;5045186;28;20025;-67
2022/09/28 00:56:25;;;;;;;1.40;0.90;;;22.10;80.50;;;;;;5061502;28;20056;-66
2022/09/28 00:58:53;;;;;;;1.05;0.73;;;22.70;76.00;;;;;;5044752;28;20462;-66
2022/09/28 01:01:21;;;;;;;1.95;0.70;;;23.00;71.80;;;;;;5040927;28;20536;-65
2022/09/28 01:03:49;;;;;;;2.30;0.80;;;23.00;65.10;;;;;;5044521;28;20036;-66
2022/09/28 01:06:26;;;;;;;0.68;0.60;;;23.20;74.20;;;;;;5039900;28;20033;-65
2022/09/28 01:08:57;;;;;;;3.60;1.15;;;23.60;69.30;;;;;;5061118;28;20456;-68
2022/09/28 01:11:26;;;;;;;1.90;0.70;;;23.80;64.60;;;;;;5052571;28;20379;-66
2022/09/28 01:13:56;;;;;;;0.63;0.50;;;24.00;63.10;;;;;;5036553;28;20021;-65
2022/09/28 01:16:42;;;;;;;1.02;0.60;;;24.10;62.90;;;;;;5055626;28;20033;-65
2022/09/28 01:19:35;;;;;;;1.30;0.80;;;24.00;65.80;;;;;;5053682;28;20044;-65
2022/09/28 01:22:23;;;;;;;3.30;0.77;;;23.90;61.50;;;;;;5047848;28;20033;-64
2022/09/28 01:25:05;;;;;;;0.80;0.60;;;23.60;60.60;;;;;;5049987;28;20025;-65
2022/09/28 01:27:51;;;;;;;1.02;0.60;;;23.20;63.40;;;;;;5046125;28;20440;-65
2022/09/28 01:30:21;;;;;;;1.10;0.65;;;23.00;67.40;;;;;;5051969;28;20123;-65
2022/09/28 01:33:02;;;;;;;1.20;0.73;;;22.60;64.80;;;;;;5047212;28;20035;-65
2022/09/28 01:35:51;;;;;;;1.00;0.50;;;22.60;67.90;;;;;;5053188;28;20025;-64
2022/09/28 01:38:29;;;;;;;2.05;0.80;;;22.50;66.00;;;;;;5053047;28;20174;-65
2022/09/28 01:40:58;;;;;;;1.85;0.50;;;22.30;67.00;;;;;;5067428;28;20028;-65
2022/09/28 01:43:28;;;;;;;1.27;0.65;;;22.20;64.90;;;;;;5052551;28;20025;-64
2022/09/28 01:46:01;;;;;;;1.45;0.50;;;22.40;65.60;;;;;;5051831;28;20363;-65
2022/09/28 01:49:03;;;;;;;1.25;0.70;;;22.80;62.30;;;;;;5053675;28;20131;-65
2022/09/28 01:51:33;;;;;;;0.60;0.50;;;23.20;66.30;;;;;;5050896;28;20297;-65
2022/09/28 01:54:18;;;;;;;1.35;0.70;;;23.20;63.70;;;;;;5050516;28;20085;-64
2022/09/28 01:56:48;;;;;;;1.30;0.70;;;22.90;62.30;;;;;;5049749;28;20033;-65
2022/09/28 01:59:23;;;;;;;0.55;0.35;;;22.50;64.30;;;;;;5050925;28;20452;-65
2022/09/28 02:02:09;;;;;;;1.50;0.70;;;22.20;65.90;;;;;;5042827;28;20120;-64
2022/09/28 02:04:46;;;;;;;1.70;0.70;;;22.00;69.70;;;;;;5047338;28;20032;-65
2022/09/28 02:07:38;;;;;;;1.35;0.60;;;22.20;65.80;;;;;;5042746;28;20080;-64
2022/09/28 02:10:18;;;;;;;2.60;0.57;;;22.40;61.70;;;;;;5052961;28;20033;-65
2022/09/28 02:12:55;;;;;;;0.73;0.50;;;22.30;60.10;;;;;;5050442;28;20027;-65
2022/09/28 02:15:48;;;;;;;1.00;0.68;;;22.50;65.10;;;;;;5050912;28;20060;-65
2022/09/28 02:18:16;;;;;;;1.35;0.70;;;22.60;61.20;;;;;;5053160;28;20036;-65
2022/09/28 02:20:50;;;;;;;1.10;0.65;;;22.80;62.10;;;;;;5064657;28;20140;-65
2022/09/28 02:23:18;;;;;;;;;;;22.90;59.00;;;;;;5059547;28;20035;-64
2022/09/28 02:25:51;;;;;;;0.55;0.40;;;22.90;61.30;;;;;;5053122;28;19948;-65
2022/09/28 02:28:19;;;;;;;0.60;0.50;;;23.00;60.50;;;;;;5053483;28;20692;-63
2022/09/28 02:30:46;;;;;;;1.65;0.85;;;23.10;62.50;;;;;;5051313;28;20047;-63
2022/09/28 02:33:43;;;;;;;0.98;0.55;;;23.20;59.70;;;;;;5058728;28;20033;-64
2022/09/28 02:36:10;;;;;;;2.25;0.50;;;23.20;58.90;;;;;;5041664;28;20034;-62
2022/09/28 02:38:38;;;;;;;1.58;0.60;;;23.50;58.10;;;;;;5058735;28;20052;-63
2022/09/28 02:41:23;;;;;;;8.70;0.88;;;23.70;59.30;;;;;;5058329;28;20021;-63
2022/09/28 02:44:10;;;;;;;1.70;0.70;;;24.00;54.90;;;;;;5050808;28;20444;-63
2022/09/28 02:46:37;;;;;;;1.20;0.40;;;23.90;57.00;;;;;;5045432;28;20421;-64
2022/09/28 02:49:31;;;;;;;0.82;0.50;;;24.00;56.00;;;;;;5045401;28;20037;-61
2022/09/28 02:52:29;;;;;;;1.48;0.63;;;23.70;52.40;;;;;;5043598;28;20025;-63
2022/09/28 02:55:22;;;;;;;1.88;0.40;;;23.70;57.90;;;;;;5045062;28;20419;-61
2022/09/28 02:58:30;;;;;;;1.65;0.60;;;24.00;61.10;;;;;;5052988;28;20036;-61
2022/09/28 03:01:38;;;;;;;0.70;0.43;;;24.10;54.10;;;;;;4998691;28;20479;-62
2022/09/28 03:04:23;;;;;;;0.47;0.40;;;24.20;60.50;;;;;;4975195;28;20125;-61
2022/09/28 03:07:20;;;;;;;2.40;0.68;;;24.40;56.80;;;;;;5038395;28;20087;-61
2022/09/28 03:10:26;;;;;;;0.95;0.40;;;24.70;56.80;;;;;;5031621;28;20532;-61
2022/09/28 03:12:54;;;;;;;1.50;0.50;;;24.90;55.10;;;;;;5046872;28;20039;-62
2022/09/28 03:15:23;;;;;;;0.70;0.43;;;24.70;53.60;;;;;;5044711;28;20021;-61
2022/09/28 03:17:51;;;;;;;2.75;0.80;;;24.40;54.50;;;;;;5049786;28;20116;-62
2022/09/28 03:20:18;;;;;;;0.40;0.32;;;24.00;52.30;;;;;;5051027;28;20045;-60
2022/09/28 03:22:46;;;;;;;0.95;0.63;;;23.60;54.30;;;;;;5046150;28;20031;-61
2022/09/28 03:25:14;;;;;;;2.40;0.60;;;23.60;54.60;;;;;;5052162;28;20099;-61
2022/09/28 03:27:42;;;;;;;2.05;0.60;;;23.50;55.70;;;;;;5046912;28;20501;-61
2022/09/28 03:30:10;;;;;;;0.50;0.40;;;23.40;54.50;;;;;;5074162;28;20549;-60
2022/09/28 03:32:38;;;;;;;0.80;0.52;;;23.30;54.00;;;;;;5052874;28;20460;-61
2022/09/28 03:35:08;;;;;;;1.42;0.52;;;23.20;55.30;;;;;;5050586;28;20027;-62
2022/09/28 03:37:35;;;;;;;1.02;0.40;;;23.10;53.20;;;;;;5050730;28;20505;-61
2022/09/28 03:40:05;;;;;;;1.13;0.50;;;23.10;54.30;;;;;;5046035;28;20036;-60
2022/09/28 03:42:34;;;;;;;2.30;0.57;;;23.00;54.40;;;;;;5052014;28;20488;-61
2022/09/28 03:45:01;;;;;;;1.15;0.50;;;23.00;54.80;;;;;;5050454;28;20064;-62
2022/09/28 03:47:29;;;;;;;1.30;0.40;;;22.80;56.20;;;;;;5047349;28;20013;-61
2022/09/28 03:49:56;;;;;;;0.30;0.30;;;22.70;54.80;;;;;;5050819;28;20398;-61
2022/09/28 03:52:23;;;;;;;3.88;0.43;;;22.70;54.00;;;;;;5051843;28;20024;-62
2022/09/28 03:54:50;;;;;;;1.77;0.40;;;22.50;55.60;;;;;;5053801;28;20032;-63
2022/09/28 03:57:18;;;;;;;0.52;0.50;;;22.40;56.80;;;;;;5048027;28;20528;-62
2022/09/28 03:59:45;;;;;;;1.15;0.55;;;22.30;54.90;;;;;;5061971;28;20079;-63
2022/09/28 04:02:12;;;;;;;1.52;0.40;;;22.20;56.20;;;;;;5061898;28;20033;-62
2022/09/28 04:04:39;;;;;;;1.55;0.95;;;22.10;58.40;;;;;;5063480;28;20032;-62
2022/09/28 04:07:07;;;;;;;1.35;0.60;;;22.20;57.80;;;;;;5054933;28;20025;-62
2022/09/28 04:09:34;;;;;;;2.00;0.60;;;22.10;55.90;;;;;;5048910;28;20039;-61
2022/09/28 04:12:01;;;;;;;1.08;0.40;;;22.20;57.80;;;;;;5043757;28;20033;-61
2022/09/28 04:14:28;;;;;;;0.40;0.40;;;22.10;57.40;;;;;;5047946;28;20028;-61
2022/09/28 04:16:56;;;;;;;1.17;0.57;;;22.10;58.40;;;;;;5045949;28;20025;-61
2022/09/28 04:19:24;;;;;;;1.55;0.60;;;22.10;57.70;;;;;;5058749;28;20024;-61
2022/09/28 04:21:51;;;;;;;6.82;1.17;;;22.10;57.00;;;;;;5048337;28;20033;-60
2022/09/28 04:24:19;;;;;;;1.55;0.50;;;22.10;56.80;;;;;;5049847;28;20017;-60
2022/09/28 04:26:46;;;;;;;1.70;0.60;;;22.20;57.00;;;;;;5043675;28;20041;-61
2022/09/28 04:29:16;;;;;;;0.75;0.52;;;22.20;57.50;;;;;;5044031;28;20070;-61
2022/09/28 04:31:49;;;;;;;3.55;0.60;;;22.20;56.10;;;;;;5041479;28;20021;-65
2022/09/28 04:34:18;;;;;;;1.45;0.50;;;22.20;57.30;;;;;;5039752;28;20048;-62
2022/09/28 04:36:47;;;;;;;1.08;0.50;;;22.20;56.80;;;;;;5042501;28;20082;-62
2022/09/28 04:39:18;;;;;;;0.40;0.30;;;22.20;56.80;;;;;;5054177;28;20032;-61
2022/09/28 04:41:48;;;;;;;0.47;0.30;;;22.30;54.70;;;;;;5047479;28;20385;-63
2022/09/28 04:44:15;;;;;;;3.30;1.48;;;22.30;53.40;;;;;;5045311;28;20104;-62
2022/09/28 04:46:42;;;;;;;5.75;1.23;;;22.20;64.30;;;;;;5047141;28;20037;-62
2022/09/28 04:49:10;;;;;;;4.82;1.63;;;22.20;69.80;;;;;;5047819;28;20041;-64
2022/09/28 04:51:38;;;;;;;3.60;1.58;;;22.20;72.00;;;;;;5054292;28;20061;-62
2022/09/28 04:54:05;;;;;;;3.03;0.95;;;21.80;74.90;;;;;;5051924;28;20044;-61
2022/09/28 04:56:32;;;;;;;10.30;1.73;;;21.50;75.40;;;;;;5066010;28;20098;-61
2022/09/28 04:58:59;;;;;;;5.20;1.63;;;21.10;78.00;;;;;;5061732;28;20510;-61
2022/09/28 05:01:28;;;;;;;3.60;1.25;;;21.10;80.00;;;;;;5051090;28;20028;-60
2022/09/28 05:03:55;;;;;;;3.25;1.30;;;21.20;80.40;;;;;;5063707;28;20025;-61
2022/09/28 05:06:26;;;;;;;5.03;1.50;;;21.20;80.10;;;;;;5046599;28;20032;-61
2022/09/28 05:08:56;;;;;;;5.38;1.15;;;21.00;79.20;;;;;;5076282;28;20028;-63
2022/09/28 05:11:23;;;;;;;4.53;1.70;;;20.80;79.60;;;;;;5049361;28;20021;-61
2022/09/28 05:13:51;;;;;;;4.32;1.35;;;20.70;82.50;;;;;;5064470;28;20029;-61
2022/09/28 05:16:19;;;;;;;8.80;1.58;;;20.60;82.50;;;;;;5050703;28;20028;-61
2022/09/28 05:18:46;;;;;;;2.90;1.20;;;20.40;84.30;;;;;;5047226;28;20053;-61
2022/09/28 05:21:15;;;;;;;4.72;1.30;;;20.30;86.50;;;;;;5041661;28;20611;-62
2022/09/28 05:23:46;;;;;;;5.43;1.45;;;20.30;86.00;;;;;;5063916;28;20037;-62
2022/09/28 05:26:14;;;;;;;3.90;1.88;;;20.40;85.70;;;;;;5044685;28;20763;-62
2022/09/28 05:28:43;;;;;;;7.65;2.00;;;20.40;84.60;;;;;;5049602;28;20444;-62
2022/09/28 05:31:10;;;;;;;5.85;1.40;;;20.30;84.80;;;;;;5045447;28;20037;-61
2022/09/28 05:33:38;;;;;;;7.30;1.83;;;20.10;84.90;;;;;;5055678;28;20054;-61
2022/09/28 05:36:09;;;;;;;6.15;1.63;;;20.00;85.00;;;;;;5046968;28;20053;-62
2022/09/28 05:38:37;;;;;;;2.75;1.20;;;19.80;86.20;;;;;;5047381;28;20029;-62
2022/09/28 05:41:04;;;;;;;7.28;1.83;;;19.80;86.80;;;;;;5054960;28;20473;-62
2022/09/28 05:43:32;;;;;;;6.60;1.85;;;19.60;87.20;;;;;;5053721;28;20093;-62
2022/09/28 05:45:59;;;;;;;5.47;1.40;;;19.50;88.40;;;;;;5046002;28;20057;-61
2022/09/28 05:48:27;;;;;;;5.93;1.77;;;19.40;87.80;;;;;;5050240;28;20037;-62
2022/09/28 05:50:54;;;;;;;6.60;1.70;;;19.30;89.00;;;;;;5054233;28;20080;-62
2022/09/28 05:53:22;;;;;;;4.45;2.53;;;19.20;89.00;;;;;;5047035;28;20025;-61
2022/09/28 05:55:49;;;;;;;3.50;2.03;;;19.20;90.00;;;;;;5046584;28;20072;-61
2022/09/28 05:58:17;;;;;;;2.20;1.15;;;19.20;90.20;;;;;;5058132;28;20493;-62
2022/09/28 06:00:44;;;;;;;3.83;1.30;;;19.20;90.20;;;;;;5051878;28;20076;-60
2022/09/28 06:03:13;;;;;;;5.10;2.03;;;19.20;90.50;;;;;;5062758;28;20033;-63
2022/09/28 06:05:41;;;;;;;10.95;1.92;;;19.20;90.10;;;;;;5048713;28;20448;-62
2022/09/28 06:08:10;;;;;;;5.38;1.42;;;19.20;90.20;;;;;;5055745;28;20033;-61
2022/09/28 06:10:38;;;;;;;7.05;2.72;;;19.30;90.10;;;;;;5053155;28;20124;-62
2022/09/28 06:13:06;;;;;;;5.38;2.28;;;19.20;90.40;;;;;;5047188;28;20044;-63
2022/09/28 06:15:36;;;;;;;4.15;1.33;;;19.10;90.90;;;;;;5056844;28;20060;-63
2022/09/28 06:18:10;;;;;;;6.07;1.70;;;19.00;90.80;;;;;;5051285;28;20029;-63
2022/09/28 06:20:40;;;;;;;;;;;18.90;91.10;;;;;;5041745;28;20025;-63
2022/09/28 06:23:11;;;;;;;9.73;2.30;;;18.80;91.30;;;;;;5053216;28;19958;-62
2022/09/28 06:25:39;;;;;;;8.05;1.58;;;18.70;91.60;;;;;;5046062;28;20028;-63
2022/09/28 06:28:12;;;;;;;4.38;2.08;;;18.60;91.70;;;;;;5049886;28;20029;-63
2022/09/28 06:30:40;;;;;;;10.82;2.25;;;18.50;91.50;;;;;;5049943;28;20032;-64
2022/09/28 06:33:10;;;;;;;12.43;2.90;;;18.50;92.20;;;;;;5048782;28;20029;-64
2022/09/28 06:35:38;;;;;;;6.20;1.60;;;18.40;92.30;;;;;;5048438;28;20037;-63
2022/09/28 06:38:05;;;;;;;13.15;1.67;;;18.30;93.00;;;;;;5046274;28;20562;-63
2022/09/28 06:40:33;;;;;;;10.43;1.58;;;18.30;93.90;;;;;;5047661;28;20037;-64
2022/09/28 06:43:09;;;;;;;7.90;1.55;;;18.20;94.10;;;;;;5043131;28;20030;-64
2022/09/28 06:45:37;;;;;;;8.20;3.17;;;18.10;94.40;;;;;;5049860;28;20017;-65
2022/09/28 06:48:05;;;;;;;6.18;1.70;;;18.00;94.60;;;;;;5044150;28;20104;-64
2022/09/28 06:50:39;;;;;;;8.45;1.58;;;17.90;94.40;;;;;;5051194;28;20044;-64
2022/09/28 06:53:09;;;;;;;8.60;2.13;;;17.90;94.30;;;;;;5042752;28;20119;-65
2022/09/28 06:55:41;;;;;;;4.65;1.27;;;17.80;94.10;;;;;;5045662;28;20108;-61
2022/09/28 06:58:14;;;;;;;4.85;1.40;;;17.80;93.80;;;;;;5047461;28;20025;-58
2022/09/28 07:00:42;;;;;;;5.18;1.58;;;17.70;94.30;;;;;;5043155;28;20029;-58
2022/09/28 07:03:19;;;;;;;4.15;1.80;;;17.70;94.50;;;;;;5045388;28;20025;-58
2022/09/28 07:05:52;;;;;;;7.78;2.45;;;17.70;94.50;;;;;;5050812;28;20025;-59
2022/09/28 07:08:25;;;;;;;4.68;2.08;;;17.60;94.80;;;;;;5051588;28;20029;-59
2022/09/28 07:10:55;;;;;;;7.13;1.38;;;17.40;94.60;;;;;;5054671;28;20105;-59
2022/09/28 07:13:25;;;;;;;6.93;1.65;;;17.20;94.10;;;;;;5060329;28;20024;-59
2022/09/28 07:15:56;;;;;;;5.05;1.50;;;17.10;94.20;;;;;;5051431;28;20040;-61
2022/09/28 07:18:23;;;;;;;2.65;1.30;;;17.00;94.60;;;;;;5053923;28;20025;-61
2022/09/28 07:20:51;;;;;;;5.97;1.55;;;16.90;95.00;;;;;;5051066;28;20031;-59
2022/09/28 07:23:19;;;;;;;5.90;1.45;;;16.80;95.00;;;;;;5046415;28;20024;-59
2022/09/28 07:25:47;;;;;;;2.95;0.88;;;16.80;94.30;;;;;;5048069;28;20478;-60
2022/09/28 07:28:17;;;;;;;2.03;0.85;;;16.70;91.10;;;;;;5046917;28;20098;-61
2022/09/28 07:30:44;;;;;;;2.97;1.02;;;16.60;87.80;;;;;;5048396;28;20041;-60
2022/09/28 07:33:14;;;;;;;1.55;0.70;;;16.50;86.40;;;;;;5049799;28;20108;-60
2022/09/28 07:35:49;;;;;;;5.32;0.80;;;16.40;81.10;;;;;;5047604;28;20033;-60
2022/09/28 07:38:16;;;;;;;1.13;0.52;;;16.30;81.70;;;;;;5047786;28;20029;-61
2022/09/28 07:43:29;;;;;;;4.68;1.08;;;16.10;84.90;;;;;;5046529;28;20020;-60
2022/09/28 07:46:00;;;;;;;5.32;1.60;;;16.00;89.90;;;;;;5046391;28;20052;-58
2022/09/28 07:48:35;;;;;;;5.13;1.02;;;16.00;92.00;;;;;;5048023;28;20044;-59
2022/09/28 07:51:02;;;;;;;;;;;15.80;92.70;;;;;;5045594;28;20099;-61
2022/09/28 07:53:30;;;;;;;3.40;0.98;;;15.70;92.60;;;;;;5046502;28;19909;-58
2022/09/28 07:56:19;;;;;;;2.97;1.00;;;15.50;93.00;;;;;;5042801;28;20112;-59
2022/09/28 07:58:48;;;;;;;4.13;1.05;;;15.30;93.60;;;;;;5039091;28;20563;-60
2022/09/28 08:01:16;;;;;;;4.13;1.60;;;15.00;95.20;;;;;;5039080;28;20055;-59
2022/09/28 08:03:45;;;;;;;1.85;1.15;;;14.90;96.80;;;;;;5042718;28;20025;-59
2022/09/28 08:06:14;;;;;;;3.03;1.30;;;14.70;96.70;;;;;;5043305;28;20029;-56
2022/09/28 08:08:43;;;;;;;4.28;1.33;;;14.60;97.70;;;;;;5047104;28;20033;-61
2022/09/28 08:11:12;;;;;;;3.70;1.30;;;14.40;99.30;;;;;;5048836;28;20516;-58
2022/09/28 08:13:40;;;;;;;3.30;1.70;;;14.20;99.90;;;;;;5042026;28;20190;-60
2022/09/28 08:16:07;;;;;;;8.45;1.65;;;14.10;99.90;;;;;;5041603;28;20025;-62
2022/09/28 08:18:35;;;;;;;6.68;1.73;;;14.00;99.90;;;;;;5047117;28;20025;-61
2022/09/28 08:23:52;;;;;;;4.63;1.77;;;14.10;99.90;;;;;;5044648;28;20040;-63
2022/09/28 08:26:19;;;;;;;6.90;1.70;;;14.10;99.90;;;;;;5042865;28;20120;-62
2022/09/28 08:28:46;;;;;;;7.10;2.13;;;14.10;99.90;;;;;;5035309;28;20048;-63
2022/09/28 08:31:14;;;;;;;6.78;1.80;;;14.20;99.90;;;;;;5044217;28;20119;-62
2022/09/28 08:33:41;;;;;;;9.73;3.15;;;14.20;99.90;;;;;;5045258;28;20032;-59
2022/09/28 08:36:09;;;;;;;5.38;2.70;;;14.30;99.90;;;;;;5046529;28;20032;-59
2022/09/28 08:38:36;;;;;;;9.30;3.05;;;14.40;99.90;;;;;;5043978;28;20059;-60
2022/09/28 08:41:22;;;;;;;12.77;3.20;;;14.40;99.90;;;;;;5041255;28;20478;-64
2022/09/28 08:44:04;;;;;;;5.38;2.40;;;14.50;99.90;;;;;;5038695;28;20055;-62
2022/09/28 08:46:47;;;;;;;7.88;3.60;;;14.50;99.90;;;;;;5037454;28;20025;-62
2022/09/28 08:49:20;;;;;;;6.47;2.42;;;14.60;99.90;;;;;;5054584;28;20509;-61
2022/09/28 08:52:10;;;;;;;8.35;2.30;;;14.60;99.90;;;;;;5046540;28;20489;-61
2022/09/28 08:54:54;;;;;;;6.78;2.20;;;14.50;99.90;;;;;;5046059;28;20433;-62
2022/09/28 08:57:26;;;;;;;4.47;1.80;;;14.40;99.90;;;;;;5042244;28;20033;-62
2022/09/28 08:59:57;;;;;;;10.23;3.03;;;14.50;99.90;;;;;;5043330;28;20021;-62
2022/09/28 09:02:35;;;;;;;5.72;2.50;;;14.30;99.90;;;;;;5043518;28;20021;-63
2022/09/28 09:05:13;;;;;;;9.45;3.83;;;14.30;99.90;;;;;;5044933;28;20369;-62
2022/09/28 09:08:02;;;;;;;9.13;4.18;;;14.30;99.90;;;;;;5043707;28;20516;-61
2022/09/28 09:10:42;;;;;;;8.63;4.68;;;14.30;99.90;;;;;;5042494;28;20072;-61
2022/09/28 09:13:30;;;;;;;7.20;3.75;;;14.20;99.90;;;;;;5040082;28;20036;-62
2022/09/28 09:16:09;;;;;;;11.32;4.60;;;14.30;99.90;;;;;;5040901;28;20040;-63
2022/09/28 09:18:56;;;;;;;11.80;4.00;;;14.20;99.90;;;;;;5042797;28;20120;-63
2022/09/28 09:21:40;;;;;;;7.97;3.53;;;14.10;99.90;;;;;;5044452;28;20389;-63
2022/09/28 09:24:20;;;;;;;7.35;2.97;;;14.10;99.90;;;;;;5045639;28;20025;-61
2022/09/28 09:26:57;;;;;;;9.20;3.67;;;14.00;99.90;;;;;;5045478;28;20536;-62
2022/09/28 09:29:51;;;;;;;7.43;3.60;;;14.10;99.90;;;;;;5045634;28;20036;-61
2022/09/28 09:32:49;;;;;;;9.13;3.42;;;14.00;99.90;;;;;;5041447;28;20069;-61
2022/09/28 09:35:45;;;;;;;9.60;3.55;;;14.00;99.90;;;;;;5046308;28;20029;-62
2022/09/28 09:38:40;;;;;;;9.65;5.07;;;13.90;99.90;;;;;;5045254;28;20029;-61
2022/09/28 09:41:16;;;;;;;8.55;3.97;;;13.90;99.90;;;;;;5049453;28;20071;-61
2022/09/28 09:44:02;;;;;;;13.50;4.10;;;13.90;99.90;;;;;;5049374;28;20028;-60
2022/09/28 09:46:39;;;;;;;14.82;4.50;;;13.80;99.90;;;;;;5049743;28;20025;-60
2022/09/28 09:49:15;;;;;;;11.02;4.15;;;13.90;99.90;;;;;;5048816;28;20082;-61
2022/09/28 09:51:55;;;;;;;18.10;4.47;;;13.90;99.90;;;;;;5042360;28;20402;-60
2022/09/28 09:54:26;;;;;;;9.20;4.05;;;13.80;99.90;;;;;;5048964;28;20550;-62
2022/09/28 09:57:19;;;;;;;9.70;4.57;;;13.70;99.90;;;;;;5049494;28;20078;-61
2022/09/28 09:59:48;;;;;;;8.10;4.18;;;13.80;99.90;;;;;;5056701;28;20032;-62
2022/09/28 10:02:34;;;;;;;14.93;4.72;;;13.80;99.90;;;;;;5049385;28;20086;-61
2022/09/28 10:05:14;;;;;;;7.47;2.63;;;13.80;99.90;;;;;;5047638;28;20029;-60
2022/09/28 10:07:58;;;;;;;8.27;2.30;;;13.90;99.90;;;;;;5047654;28;20063;-60
2022/09/28 10:10:34;;;;;;;8.18;2.38;;;13.90;99.90;;;;;;5047882;28;20044;-60
2022/09/28 10:13:02;;;;;;;5.55;2.33;;;14.00;99.90;;;;;;5047944;28;20028;-60
2022/09/28 10:15:38;;;;;;;10.18;2.45;;;14.00;99.90;;;;;;5048593;28;20021;-61
2022/09/28 10:18:12;;;;;;;6.32;2.05;;;14.00;99.90;;;;;;5049074;28;20020;-59
2022/09/28 10:20:42;;;;;;;3.70;1.80;;;13.90;99.90;;;;;;5047349;28;20772;-62
2022/09/28 10:23:29;;;;;;;9.73;2.42;;;13.90;99.90;;;;;;5047907;28;20501;-61
2022/09/28 10:26:02;;;;;;;5.13;2.30;;;13.90;99.90;;;;;;5044317;28;20405;-61
2022/09/28 10:29:00;;;;;;;3.45;2.05;;;13.80;99.90;;;;;;5049064;28;20025;-61
2022/09/28 10:31:35;;;;;;;7.93;2.13;;;13.80;99.90;;;;;;5043045;28;20045;-62
2022/09/28 10:34:06;;;;;;;4.07;2.35;;;13.80;99.90;;;;;;5048243;28;20506;-60
2022/09/28 10:36:47;;;;;;;4.93;2.47;;;13.80;99.90;;;;;;5048309;28;20025;-62
2022/09/28 10:39:52;;;;;;;4.88;2.75;;;13.80;99.90;;;;;;5047905;28;20044;-61
2022/09/28 10:42:29;;;;;;;10.02;2.88;;;13.70;99.90;;;;;;5039435;28;20036;-61
2022/09/28 10:45:16;;;;;;;2.85;2.20;;;13.70;99.90;;;;;;5046635;28;20557;-61
2022/09/28 10:47:44;;;;;;;3.30;2.13;;;13.60;99.90;;;;;;5048247;28;20025;-60
2022/09/28 10:50:25;;;;;;;3.15;2.22;;;13.60;99.90;;;;;;5047391;28;20053;-62
2022/09/28 10:53:09;;;;;;;7.22;2.35;;;13.50;99.90;;;;;;5048159;28;20067;-61
2022/09/28 10:55:36;;;;;;;4.22;1.70;;;13.40;99.90;;;;;;5047201;28;20037;-61
2022/09/28 10:58:29;;;;;;;1.95;1.27;;;13.40;99.90;;;;;;5046106;28;20029;-61
2022/09/28 11:01:11;;;;;;;1.45;1.08;;;13.30;99.90;;;;;;5045419;28;20122;-61
2022/09/28 11:03:51;;;;;;;8.35;2.10;;;13.20;99.90;;;;;;5048346;28;20150;-59
2022/09/28 11:06:29;;;;;;;6.80;2.92;;;13.10;99.90;;;;;;5048052;28;20033;-62
2022/09/28 11:09:07;;;;;;;7.72;1.85;;;13.00;99.90;;;;;;5047912;28;20151;-61
2022/09/28 11:11:42;;;;;;;2.97;1.30;;;12.90;99.90;;;;;;5044081;28;20180;-61
2022/09/28 11:14:21;;;;;;;2.72;1.15;;;12.90;99.90;;;;;;5046679;28;20025;-60
2022/09/28 11:17:08;;;;;;;3.17;1.08;;;12.80;99.90;;;;;;5047431;28;20039;-61
2022/09/28 11:19:37;;;;;;;3.28;1.10;;;12.90;99.90;;;;;;5046301;28;20033;-62
2022/09/28 11:22:21;;;;;;;6.03;0.90;;;12.90;99.90;;;;;;5047625;28;20029;-61
2022/09/28 11:24:49;;;;;;;1.93;1.13;;;12.90;99.90;;;;;;5047551;28;20108;-61
2022/09/28 11:27:26;;;;;;;1.40;0.80;;;12.90;99.90;;;;;;5047565;28;20270;-61
2022/09/28 11:29:58;;;;;;;1.55;0.80;;;12.90;99.90;;;;;;5043683;28;20492;-61
2022/09/28 11:32:31;;;;;;;1.35;0.85;;;12.90;99.90;;;;;;5047628;28;20474;-61
2022/09/28 11:34:59;;;;;;;1.88;0.85;;;12.90;99.90;;;;;;5047142;28;20474;-62
2022/09/28 11:37:35;;;;;;;2.90;1.23;;;12.90;99.90;;;;;;5044358;28;20029;-61
2022/09/28 11:40:28;;;;;;;3.00;1.00;;;12.90;99.90;;;;;;5044420;28;20120;-61
2022/09/28 11:43:34;;;;;;;1.25;0.68;;;12.90;99.90;;;;;;5047107;28;20031;-62
2022/09/28 11:46:35;;;;;;;1.90;0.88;;;13.00;99.90;;;;;;5024252;28;20025;-61
2022/09/28 11:49:20;;;;;;;1.35;0.75;;;13.00;99.90;;;;;;4988229;28;20053;-61
2022/09/28 11:51:50;;;;;;;1.77;0.98;;;13.00;99.90;;;;;;5041756;28;20506;-62
2022/09/28 11:54:30;;;;;;;0.90;0.70;;;13.00;99.90;;;;;;5046751;28;20124;-61
2022/09/28 11:57:00;;;;;;;0.98;0.52;;;13.00;99.90;;;;;;5046291;28;20051;-61
2022/09/28 11:59:37;;;;;;;1.48;0.75;;;13.00;99.90;;;;;;5045885;28;20386;-58
2022/09/28 12:02:38;;;;;;;2.03;0.80;;;13.10;99.90;;;;;;5046865;28;20028;-61
2022/09/28 12:05:32;;;;;;;1.20;0.73;;;13.10;99.90;;;;;;5047153;28;20032;-60
2022/09/28 12:08:16;;;;;;;3.33;0.70;;;13.10;99.90;;;;;;5046140;28;20032;-61
2022/09/28 12:11:05;;;;;;;1.08;0.70;;;13.10;99.90;;;;;;5045768;28;20041;-59
2022/09/28 12:13:43;;;;;;;2.13;0.70;;;13.10;99.90;;;;;;5048940;28;20119;-60
2022/09/28 12:16:39;;;;;;;3.08;1.10;;;13.00;99.90;;;;;;5049612;28;20402;-61
2022/09/28 12:19:17;;;;;;;2.92;0.77;;;12.90;99.90;;;;;;5046655;28;20040;-60
2022/09/28 12:21:55;;;;;;;2.03;1.00;;;12.90;99.90;;;;;;5049482;28;20092;-61
2022/09/28 12:24:30;;;;;;;1.80;0.88;;;12.80;99.90;;;;;;5049452;28;20056;-60
2022/09/28 12:27:20;;;;;;;1.30;0.80;;;12.80;99.90;;;;;;5049291;28;20397;-60
2022/09/28 12:30:03;;;;;;;1.00;0.60;;;12.70;99.90;;;;;;5049700;28;20489;-60
2022/09/28 12:32:40;;;;;;;1.10;0.70;;;12.70;99.90;;;;;;5048012;28;20025;-60
2022/09/28 12:35:15;;;;;;;1.08;0.60;;;12.70;99.90;;;;;;5049783;28;20029;-61
2022/09/28 12:37:57;;;;;;;2.42;0.65;;;12.70;99.90;;;;;;5049529;28;20527;-63
2022/09/28 12:40:36;;;;;;;2.60;0.90;;;12.70;99.90;;;;;;5049104;28;20025;-61
2022/09/28 12:43:21;;;;;;;1.20;0.70;;;12.70;99.90;;;;;;5049178;28;20020;-61
2022/09/28 12:45:50;;;;;;;1.55;0.80;;;12.60;99.90;;;;;;5047671;28;20040;-61
2022/09/28 12:48:26;;;;;;;1.30;0.70;;;12.60;99.90;;;;;;5048543;28;20045;-61
2022/09/28 12:51:14;;;;;;;1.65;0.93;;;12.50;99.90;;;;;;5049026;28;20037;-60
2022/09/28 12:53:59;;;;;;;1.30;0.70;;;12.50;99.90;;;;;;5048826;28;20035;-60
2022/09/28 12:56:52;;;;;;;1.27;0.70;;;12.50;99.90;;;;;;5047869;28;20033;-60
2022/09/28 12:59:31;;;;;;;4.32;1.05;;;12.50;99.90;;;;;;5049156;28;20029;-61
2022/09/28 13:01:58;;;;;;;0.80;0.68;;;12.40;99.90;;;;;;5047540;28;20029;-61
2022/09/28 13:05:04;;;;;;;1.17;0.70;;;12.40;99.90;;;;;;5049307;28;20028;-61
2022/09/28 13:07:38;;;;;;;3.35;0.82;;;12.40;99.90;;;;;;5028723;28;20116;-59
2022/09/28 13:10:35;;;;;;;0.90;0.50;;;12.40;99.90;;;;;;5050805;28;20389;-61
2022/09/28 13:13:20;;;;;;;3.33;0.98;;;12.40;99.90;;;;;;5052589;28;20033;-61
2022/09/28 13:15:55;;;;;;;2.42;0.80;;;12.40;99.90;;;;;;5052343;28;20052;-60
2022/09/28 13:19:07;;;;;;;1.45;0.73;;;12.40;99.90;;;;;;5052430;28;20028;-62
2022/09/28 13:22:21;;;;;;;1.42;0.65;;;12.40;99.90;;;;;;5028657;28;20133;-60
2022/09/28 13:24:50;;;;;;;1.60;1.00;;;12.40;99.90;;;;;;4968185;28;20089;-61
2022/09/28 13:27:36;;;;;;;1.42;0.65;;;12.40;99.90;;;;;;5046560;28;20040;-59
2022/09/28 13:30:06;;;;;;;1.45;0.90;;;12.40;99.90;;;;;;5048167;28;20490;-61
2022/09/28 13:32:37;;;;;;;2.88;0.75;;;12.40;99.90;;;;;;5052041;28;20506;-62
2022/09/28 13:35:05;;;;;;;1.23;0.85;;;12.40;99.90;;;;;;5048484;28;20029;-59
2022/09/28 13:37:33;;;;;;;1.58;0.90;;;12.50;99.90;;;;;;5055432;28;20025;-61